Time;durP1;ratioP1;P1;durP2;ratioP2;P2;SDS_P1;SDS_P2;PMS_P1;PMS_P2;Temp;Humidity;BMP_temperature;BMP_pressure;BME280_temperature;BME280_humidity;BME280_pressure;Samples;Min_cycle;Max_cycle;Signal;HPM_P1;HPM_P2
2021/01/30 00:00:26;;;;;;;4.20;1.10;;;7.50;99.90;;;;;;5014806;28;20827;-66
2021/01/30 00:02:54;;;;;;;2.87;1.90;;;7.50;99.90;;;;;;5023326;28;20486;-66
2021/01/30 00:05:22;;;;;;;1.67;1.40;;;7.50;99.90;;;;;;5032653;28;20481;-67
2021/01/30 00:07:53;;;;;;;3.90;1.70;;;7.50;99.90;;;;;;5032747;28;20435;-66
2021/01/30 00:10:27;;;;;;;3.63;1.63;;;7.50;99.90;;;;;;5033029;28;20445;-66
2021/01/30 00:12:58;;;;;;;2.53;1.50;;;7.50;99.90;;;;;;5014945;28;20454;-66
2021/01/30 00:15:28;;;;;;;4.53;1.20;;;7.60;99.90;;;;;;5014511;28;20513;-66
2021/01/30 00:18:11;;;;;;;1.33;1.20;;;7.50;99.90;;;;;;5031673;28;20497;-68
2021/01/30 00:20:42;;;;;;;1.23;0.87;;;7.50;99.90;;;;;;5032409;28;20504;-69
2021/01/30 00:23:10;;;;;;;2.77;1.57;;;7.50;99.90;;;;;;5031768;28;20443;-71
2021/01/30 00:25:43;;;;;;;2.17;1.03;;;7.50;99.90;;;;;;5032104;28;20434;-68
2021/01/30 00:28:13;;;;;;;1.00;0.90;;;7.50;99.90;;;;;;5032222;28;20489;-67
2021/01/30 00:30:40;;;;;;;1.60;0.80;;;7.50;99.90;;;;;;5031447;28;20456;-68
2021/01/30 00:33:08;;;;;;;0.93;0.93;;;7.40;99.90;;;;;;5030390;28;20550;-68
2021/01/30 00:35:40;;;;;;;1.17;0.80;;;7.40;99.90;;;;;;5032267;28;20828;-67
2021/01/30 00:38:08;;;;;;;1.50;1.10;;;7.30;99.90;;;;;;5032081;28;20516;-66
2021/01/30 00:40:36;;;;;;;4.90;1.23;;;7.30;99.90;;;;;;5032911;28;20522;-67
2021/01/30 00:43:18;;;;;;;1.80;1.17;;;7.30;99.90;;;;;;5032052;28;20442;-66
2021/01/30 00:45:51;;;;;;;1.53;1.20;;;7.20;99.90;;;;;;5010041;28;20486;-67
2021/01/30 00:48:19;;;;;;;3.70;1.15;;;7.10;99.90;;;;;;5012742;28;20435;-69
2021/01/30 00:50:47;;;;;;;3.53;1.80;;;7.00;99.90;;;;;;5027306;28;20497;-66
2021/01/30 00:53:14;;;;;;;3.53;1.67;;;6.90;99.90;;;;;;5010741;28;20442;-67
2021/01/30 00:55:46;;;;;;;2.23;1.20;;;6.80;99.90;;;;;;5027678;28;20538;-67
2021/01/30 00:58:15;;;;;;;2.33;1.60;;;6.80;99.90;;;;;;5011657;28;20464;-67
2021/01/30 01:01:10;;;;;;;;;;;6.80;99.90;;;;;;5010836;28;20485;-69
2021/01/30 01:03:41;;;;;;;;;;;6.80;99.90;;;;;;5012435;28;19951;-71
2021/01/30 01:06:09;;;;;;;;;;;6.70;99.90;;;;;;5013825;28;20000;-66
2021/01/30 01:08:37;;;;;;;;;;;6.70;99.90;;;;;;5013670;28;19979;-67
2021/01/30 01:11:04;;;;;;;;;;;6.80;99.90;;;;;;5014136;28;19956;-65
2021/01/30 01:13:32;;;;;;;;;;;6.70;99.90;;;;;;5012818;28;20341;-67
2021/01/30 01:16:00;;;;;;;;;;;6.70;99.90;;;;;;5019370;28;19921;-65
2021/01/30 01:21:21;;;;;;;;;;;6.90;99.90;;;;;;5015154;28;19988;-66
2021/01/30 01:23:49;;;;;;;;;;;7.00;99.90;;;;;;5033068;28;20355;-67
2021/01/30 01:26:17;;;;;;;;;;;7.00;99.90;;;;;;5033291;28;19927;-66
2021/01/30 01:28:49;;;;;;;;;;;7.10;99.90;;;;;;5033047;28;20015;-66
2021/01/30 01:31:18;;;;;;;;;;;7.20;99.90;;;;;;5031320;28;19963;-66
2021/01/30 01:33:46;;;;;;;;;;;7.20;99.90;;;;;;5032950;28;19979;-67
2021/01/30 01:36:14;;;;;;;;;;;7.20;99.90;;;;;;5032550;28;19929;-66
2021/01/30 01:38:41;;;;;;;;;;;7.20;99.90;;;;;;5032411;28;20000;-66
2021/01/30 01:41:09;;;;;;;;;;;7.30;99.90;;;;;;4997694;28;19921;-67
2021/01/30 01:43:37;;;;;;;;;;;7.20;99.90;;;;;;5032285;28;19921;-66
2021/01/30 01:46:16;;;;;;;;;;;7.30;99.90;;;;;;5013713;28;19928;-69
2021/01/30 01:48:51;;;;;;;;;;;7.30;99.90;;;;;;5014548;28;19920;-67
2021/01/30 01:51:24;;;;;;;;;;;7.30;99.90;;;;;;5014124;28;19943;-67
2021/01/30 01:53:51;;;;;;;;;;;7.30;99.90;;;;;;5032164;28;19925;-68
2021/01/30 01:56:21;;;;;;;;;;;7.30;99.90;;;;;;5031776;28;20348;-66
2021/01/30 01:58:51;;;;;;;;;;;7.30;99.90;;;;;;5032136;28;20032;-67
2021/01/30 02:01:19;;;;;;;;;;;7.40;99.90;;;;;;5030036;28;20079;-67
2021/01/30 02:03:51;;;;;;;;;;;7.30;99.90;;;;;;5030605;28;19927;-67
2021/01/30 02:06:19;;;;;;;;;;;7.30;99.90;;;;;;5032425;28;20038;-66
2021/01/30 02:08:47;;;;;;;;;;;7.40;99.90;;;;;;5030981;28;19956;-66
2021/01/30 02:11:14;;;;;;;;;;;7.40;99.90;;;;;;5031823;28;19921;-68
2021/01/30 02:13:44;;;;;;;;;;;7.30;99.90;;;;;;5032016;28;19971;-66
2021/01/30 02:16:16;;;;;;;;;;;7.40;99.90;;;;;;5013866;28;19925;-70
2021/01/30 02:18:48;;;;;;;;;;;7.40;99.90;;;;;;4998119;28;20337;-67
2021/01/30 02:21:28;;;;;;;;;;;7.40;99.90;;;;;;5013948;28;19921;-66
2021/01/30 02:24:14;;;;;;;;;;;7.30;99.90;;;;;;5032105;28;20312;-67
2021/01/30 02:26:57;;;;;;;;;;;7.40;99.90;;;;;;5033461;28;19921;-66
2021/01/30 02:29:47;;;;;;;;;;;7.40;99.90;;;;;;5036083;28;19921;-67
2021/01/30 02:32:27;;;;;;;;;;;7.40;99.90;;;;;;5017242;28;20019;-70
2021/01/30 02:35:11;;;;;;;;;;;7.40;99.90;;;;;;5035733;28;19921;-66
2021/01/30 02:37:44;;;;;;;;;;;7.40;99.90;;;;;;5034074;28;20015;-67
2021/01/30 02:40:14;;;;;;;;;;;7.30;99.90;;;;;;5035319;28;19933;-69
2021/01/30 02:42:42;;;;;;;;;;;7.40;99.90;;;;;;5017893;28;19968;-66
2021/01/30 02:45:15;;;;;;;;;;;7.30;99.90;;;;;;5035593;28;19956;-67
2021/01/30 02:47:46;;;;;;;;;;;7.30;99.90;;;;;;5017736;28;19925;-65
2021/01/30 02:50:15;;;;;;;;;;;7.40;99.90;;;;;;5035378;28;19925;-68
2021/01/30 02:52:45;;;;;;;;;;;7.30;99.90;;;;;;5035021;28;20067;-66
2021/01/30 02:55:15;;;;;;;;;;;7.30;99.90;;;;;;5033954;28;20442;-67
2021/01/30 02:57:46;;;;;;;;;;;7.30;99.90;;;;;;5035765;28;19921;-66
2021/01/30 03:00:16;;;;;;;;;;;7.30;99.90;;;;;;5034732;28;19955;-66
2021/01/30 03:02:44;;;;;;;;;;;7.20;99.90;;;;;;5034302;28;19928;-67
2021/01/30 03:05:12;;;;;;;;;;;7.20;99.90;;;;;;5035299;28;19924;-67
2021/01/30 03:07:57;;;;;;;;;;;7.20;99.90;;;;;;5034759;28;20359;-67
2021/01/30 03:10:27;;;;;;;;;;;7.20;99.90;;;;;;5034436;28;19956;-66
2021/01/30 03:12:58;;;;;;;;;;;7.20;99.90;;;;;;5034412;28;20422;-66
2021/01/30 03:15:33;;;;;;;;;;;7.20;99.90;;;;;;5035182;28;19921;-66
2021/01/30 03:18:02;;;;;;;;;;;7.20;99.90;;;;;;5034828;28;19979;-69
2021/01/30 03:20:31;;;;;;;;;;;7.10;99.90;;;;;;5017011;28;20393;-69
2021/01/30 03:23:01;;;;;;;;;;;7.10;99.90;;;;;;5017023;28;19920;-67
2021/01/30 03:25:30;;;;;;;;;;;7.10;99.90;;;;;;5035068;28;19921;-66
2021/01/30 03:27:59;;;;;;;;;;;7.10;99.90;;;;;;5034801;28;19944;-66
2021/01/30 03:30:27;;;;;;;;;;;7.10;99.90;;;;;;5034312;28;20368;-66
2021/01/30 03:32:55;;;;;;;;;;;7.10;99.90;;;;;;5034785;28;19921;-66
2021/01/30 03:35:22;;;;;;;;;;;7.00;99.90;;;;;;5033372;28;19967;-66
2021/01/30 03:37:49;;;;;;;;;;;7.00;99.90;;;;;;5034472;28;20387;-69
2021/01/30 03:40:18;;;;;;;;;;;7.00;99.90;;;;;;5017646;28;20452;-69
2021/01/30 03:42:45;;;;;;;;;;;7.00;99.90;;;;;;5033985;28;20372;-67
2021/01/30 03:45:14;;;;;;;;;;;7.00;99.90;;;;;;5033525;28;19921;-67
2021/01/30 03:47:44;;;;;;;;;;;7.00;99.90;;;;;;4995001;28;20005;-69
2021/01/30 03:50:13;;;;;;;;;;;7.00;99.90;;;;;;4996758;28;19928;-68
2021/01/30 03:52:41;;;;;;;;;;;7.00;99.90;;;;;;4996400;28;20008;-66
2021/01/30 03:55:09;;;;;;;;;;;6.90;99.90;;;;;;4996675;28;19922;-67
2021/01/30 03:57:37;;;;;;;;;;;7.00;99.90;;;;;;4995389;28;20342;-70
2021/01/30 04:00:06;;;;;;;;;;;6.90;99.90;;;;;;5004818;28;20015;-67
2021/01/30 04:02:38;;;;;;;;;;;6.90;99.90;;;;;;5034288;28;19925;-66
2021/01/30 04:05:06;;;;;;;;;;;6.90;99.90;;;;;;5034592;28;19995;-70
2021/01/30 04:07:38;;;;;;;;;;;7.00;99.90;;;;;;5034979;28;19925;-67
2021/01/30 04:10:06;;;;;;;;;;;6.90;99.90;;;;;;5032700;28;20384;-67
2021/01/30 04:12:33;;;;;;;;;;;6.90;99.90;;;;;;5032406;28;19921;-66
2021/01/30 04:15:02;;;;;;;;;;;6.90;99.90;;;;;;5034550;28;20024;-66
2021/01/30 04:17:30;;;;;;;;;;;6.90;99.90;;;;;;5015454;28;19952;-66
2021/01/30 04:19:58;;;;;;;;;;;7.00;99.90;;;;;;5034262;28;19925;-66
2021/01/30 04:22:26;;;;;;;;;;;7.00;99.90;;;;;;5033316;28;20339;-65
2021/01/30 04:24:53;;;;;;;;;;;7.00;99.90;;;;;;5033921;28;19947;-66
2021/01/30 04:27:21;;;;;;;;;;;6.90;99.90;;;;;;5034222;28;19975;-66
2021/01/30 04:29:48;;;;;;;;;;;7.00;99.90;;;;;;5016164;28;19927;-66
2021/01/30 04:32:16;;;;;;;;;;;7.00;99.90;;;;;;5033394;28;19925;-66
2021/01/30 04:34:43;;;;;;;;;;;7.00;99.90;;;;;;5033939;28;19967;-66
2021/01/30 04:37:10;;;;;;;;;;;7.00;99.90;;;;;;5034285;28;19921;-66
2021/01/30 04:39:37;;;;;;;;;;;7.00;99.90;;;;;;5033727;28;19990;-66
2021/01/30 04:42:11;;;;;;;;;;;7.00;99.90;;;;;;5033905;28;19929;-68
2021/01/30 04:44:43;;;;;;;;;;;7.00;99.90;;;;;;5032330;28;19956;-66
2021/01/30 04:47:21;;;;;;;;;;;7.00;99.90;;;;;;5033029;28;20391;-67
2021/01/30 04:49:54;;;;;;;;;;;7.00;99.90;;;;;;5032961;28;19956;-66
2021/01/30 04:52:35;;;;;;;;;;;7.00;99.90;;;;;;4999026;28;19928;-66
2021/01/30 04:55:07;;;;;;;;;;;7.00;99.90;;;;;;5033210;28;20352;-67
2021/01/30 04:57:45;;;;;;;;;;;7.00;99.90;;;;;;5033782;28;19931;-66
2021/01/30 05:00:36;;;;;;;;;;;7.00;99.90;;;;;;5033240;28;19924;-67
2021/01/30 05:03:14;;;;;;;;;;;7.00;99.90;;;;;;4996614;28;20035;-66
2021/01/30 05:05:43;;;;;;;;;;;7.00;99.90;;;;;;5033414;28;19921;-66
2021/01/30 05:08:15;;;;;;;;;;;7.10;99.90;;;;;;5033309;28;19964;-69
2021/01/30 05:10:44;;;;;;;;;;;7.10;99.90;;;;;;5033427;28;20365;-65
2021/01/30 05:13:16;;;;;;;;;;;7.10;99.90;;;;;;5033374;28;19921;-67
2021/01/30 05:15:48;;;;;;;;;;;7.10;99.90;;;;;;5031693;28;19944;-66
2021/01/30 05:18:19;;;;;;;;;;;7.10;99.90;;;;;;5031415;28;20368;-68
2021/01/30 05:20:48;;;;;;;;;;;7.10;99.90;;;;;;5031079;28;19921;-68
2021/01/30 05:23:16;;;;;;;;;;;7.10;99.90;;;;;;5032852;28;20377;-68
2021/01/30 05:25:45;;;;;;;;;;;7.10;99.90;;;;;;5033023;28;20448;-67
2021/01/30 05:28:25;;;;;;;;;;;7.10;99.90;;;;;;5032835;28;20406;-68
2021/01/30 05:30:57;;;;;;;;;;;7.10;99.90;;;;;;5032084;28;19921;-69
2021/01/30 05:33:36;;;;;;;;;;;7.10;99.90;;;;;;5032631;28;19933;-67
2021/01/30 05:36:07;;;;;;;;;;;7.10;99.90;;;;;;5033038;28;19925;-66
2021/01/30 05:38:57;;;;;;;;;;;7.00;99.90;;;;;;5031013;28;20011;-70
2021/01/30 05:41:34;;;;;;;;;;;7.00;99.90;;;;;;5032188;28;19939;-68
2021/01/30 05:44:04;;;;;;;;;;;7.00;99.90;;;;;;5032844;28;19921;-66
2021/01/30 05:46:32;;;;;;;;;;;7.00;99.90;;;;;;5030232;28;19921;-66
2021/01/30 05:49:05;;;;;;;;;;;7.00;99.90;;;;;;5032531;28;20368;-66
2021/01/30 05:51:35;;;;;;;;;;;7.00;99.90;;;;;;5033363;28;19921;-67
2021/01/30 05:54:02;;;;;;;;;;;7.00;99.90;;;;;;5016501;28;20273;-66
2021/01/30 05:56:55;;;;;;;;;;;7.00;99.90;;;;;;4999189;28;20352;-66
2021/01/30 05:59:23;;;;;;;;;;;7.00;99.90;;;;;;5032894;28;20323;-69
2021/01/30 06:01:51;;;;;;;;;;;7.00;99.90;;;;;;5032665;28;20016;-66
2021/01/30 06:04:27;;;;;;;;;;;6.90;99.90;;;;;;5035282;28;19921;-66
2021/01/30 06:07:01;;;;;;;;;;;6.80;99.90;;;;;;5036512;28;19925;-69
2021/01/30 06:12:25;;;;;;;;;;;6.70;99.90;;;;;;4954507;29;20017;-75
2021/01/30 06:14:54;;;;;;;;;;;6.60;99.90;;;;;;4940478;29;19969;-76
2021/01/30 06:17:29;;;;;;;;;;;6.60;99.90;;;;;;4920688;29;20018;-76
2021/01/30 06:20:04;;;;;;;;;;;6.50;99.90;;;;;;4922562;29;19923;-75
2021/01/30 06:22:31;;;;;;;;;;;6.40;99.90;;;;;;4922062;29;19927;-75
2021/01/30 06:24:59;;;;;;;;;;;6.50;99.90;;;;;;4931456;29;19923;-76
2021/01/30 06:27:28;;;;;;;;;;;6.40;99.90;;;;;;4939357;29;19913;-75
2021/01/30 06:29:58;;;;;;;;;;;6.40;99.90;;;;;;4922606;29;19930;-76
2021/01/30 06:32:27;;;;;;;;;;;6.40;99.90;;;;;;4955096;28;19935;-75
2021/01/30 06:34:55;;;;;;;;;;;6.40;99.90;;;;;;4959140;29;19923;-76
2021/01/30 06:37:36;;;;;;;;;;;6.40;99.90;;;;;;4958757;29;19923;-75
2021/01/30 06:40:06;;;;;;;;;;;6.40;99.90;;;;;;4938622;29;19985;-75
2021/01/30 06:42:35;;;;;;;;;;;6.40;99.90;;;;;;4934541;29;20280;-75
2021/01/30 06:45:06;;;;;;;;;;;6.40;99.90;;;;;;4928846;29;19986;-77
2021/01/30 06:47:45;;;;;;;;;;;6.40;99.90;;;;;;4940183;28;19927;-76
2021/01/30 06:50:17;;;;;;;;;;;6.40;99.90;;;;;;4939634;29;19923;-75
2021/01/30 06:52:47;;;;;;;;;;;6.50;99.90;;;;;;4939498;29;19923;-75
2021/01/30 06:55:15;;;;;;;;;;;6.40;99.90;;;;;;4940413;29;19923;-79
2021/01/30 06:57:47;;;;;;;;;;;6.40;99.90;;;;;;4940332;29;19954;-75
2021/01/30 07:00:27;;;;;;;;;;;6.40;99.90;;;;;;4938985;29;19930;-72
2021/01/30 07:03:07;;;;;;;;;;;6.50;99.90;;;;;;4941382;29;20399;-74
2021/01/30 07:06:07;;;;;;;;;;;6.50;99.90;;;;;;4942806;29;19930;-77
2021/01/30 07:08:48;;;;;;;;;;;6.50;99.90;;;;;;4943282;29;19922;-75
2021/01/30 07:11:28;;;;;;;;;;;6.50;99.90;;;;;;4961077;29;19926;-76
2021/01/30 07:14:00;;;;;;;;;;;6.50;99.90;;;;;;4935350;29;20396;-77
2021/01/30 07:16:37;;;;;;;;;;;6.50;99.90;;;;;;4943941;29;19926;-74
2021/01/30 07:19:09;;;;;;;;;;;6.50;99.90;;;;;;4927120;29;19926;-77
2021/01/30 07:21:39;;;;;;;;;;;6.50;99.90;;;;;;4926329;29;19922;-74
2021/01/30 07:24:13;;;;;;;;;;;6.50;99.90;;;;;;4942083;29;20387;-75
2021/01/30 07:26:42;;;;;;;;;;;6.50;99.90;;;;;;4943010;29;19930;-75
2021/01/30 07:29:12;;;;;;;;;;;6.50;99.90;;;;;;4959347;29;19972;-76
2021/01/30 07:31:44;;;;;;;;;;;6.50;99.90;;;;;;4958371;28;20389;-79
2021/01/30 07:34:15;;;;;;;;;;;6.50;99.90;;;;;;4941613;29;20016;-74
2021/01/30 07:36:45;;;;;;;;;;;6.50;99.90;;;;;;4959484;29;19922;-77
2021/01/30 07:39:24;;;;;;;;;;;6.50;99.90;;;;;;4959387;29;19929;-75
2021/01/30 07:41:54;;;;;;;;;;;6.50;99.90;;;;;;4959131;29;19922;-74
2021/01/30 07:44:28;;;;;;;;;;;6.50;99.90;;;;;;4957754;29;19932;-73
2021/01/30 07:47:04;;;;;;;;;;;6.50;99.90;;;;;;4957055;28;19922;-74
2021/01/30 07:49:34;;;;;;;;;;;6.50;99.90;;;;;;4958756;29;19968;-74
2021/01/30 07:52:03;;;;;;;;;;;6.50;99.90;;;;;;4958903;29;19970;-74
2021/01/30 07:54:32;;;;;;;;;;;6.60;99.90;;;;;;4958855;29;19933;-74
2021/01/30 07:57:09;;;;;;;;;;;6.60;99.90;;;;;;4941250;29;19934;-74
2021/01/30 07:59:42;;;;;;;;;;;6.50;99.90;;;;;;4958098;29;19929;-77
2021/01/30 08:02:41;;;;;;;;;;;6.40;99.90;;;;;;4925054;29;19926;-73
2021/01/30 08:05:23;;;;;;;;;;;6.50;99.90;;;;;;4886614;29;20503;-74
2021/01/30 08:07:55;;;;;;;;;;;6.50;99.90;;;;;;4938259;29;19962;-74
2021/01/30 08:10:33;;;;;;;;;;;6.40;99.90;;;;;;4957948;29;19922;-75
2021/01/30 08:13:09;;;;;;;;;;;6.40;99.90;;;;;;4940878;29;20358;-77
2021/01/30 08:15:37;;;;;;;;;;;6.40;99.90;;;;;;4957837;28;19950;-76
2021/01/30 08:18:16;;;;;;;;;;;6.40;99.90;;;;;;4942384;29;20413;-74
2021/01/30 08:20:46;;;;;;;;;;;6.40;99.90;;;;;;4940497;29;20032;-75
2021/01/30 08:26:18;;;;;;;;;;;6.50;99.90;;;;;;4940291;29;19923;-74
2021/01/30 08:28:54;;;;;;;;;;;6.50;99.90;;;;;;4941164;29;20354;-74
2021/01/30 08:31:38;;;;;;;;;;;6.50;99.90;;;;;;4957121;28;19938;-76
2021/01/30 08:34:07;;;;;;;;;;;6.50;99.90;;;;;;4940753;29;19962;-74
2021/01/30 08:36:36;;;;;;;;;;;6.60;99.90;;;;;;4958282;29;20409;-77
2021/01/30 08:39:17;;;;;;;;;;;6.60;99.90;;;;;;4940686;29;19922;-75
2021/01/30 08:41:47;;;;;;;;;;;6.70;99.90;;;;;;4940920;29;19922;-76
2021/01/30 08:44:26;;;;;;;;;;;6.80;99.90;;;;;;4941943;29;19969;-79
2021/01/30 08:47:04;;;;;;;;;;;6.90;99.90;;;;;;4954043;29;19922;-76
2021/01/30 08:49:33;;;;;;;;;;;6.80;99.90;;;;;;4958421;29;20020;-74
2021/01/30 08:52:17;;;;;;;;;;;6.80;99.90;;;;;;4939905;29;19926;-72
2021/01/30 08:54:46;;;;;;;;;;;6.90;99.90;;;;;;4940121;29;19922;-72
2021/01/30 08:57:32;;;;;;;;;;;6.90;99.90;;;;;;4958019;29;19990;-73
2021/01/30 09:00:03;;;;;;;;;;;7.00;99.90;;;;;;4958232;29;19922;-73
2021/01/30 09:02:47;;;;;;;;;;;7.00;99.90;;;;;;4957503;28;19922;-73
2021/01/30 09:05:29;;;;;;;;;;;7.10;99.90;;;;;;4959075;29;19933;-74
2021/01/30 09:07:58;;;;;;;;;;;7.10;99.90;;;;;;4961126;28;19926;-73
2021/01/30 09:10:33;;;;;;;;;;;7.30;99.90;;;;;;4943357;29;19929;-72
2021/01/30 09:13:07;;;;;;;;;;;7.40;99.90;;;;;;4942549;29;19958;-73
2021/01/30 09:15:52;;;;;;;;;;;7.50;99.90;;;;;;4957827;28;19922;-74
2021/01/30 09:18:25;;;;;;;;;;;7.50;99.90;;;;;;4957474;29;19922;-73
2021/01/30 09:20:54;;;;;;;;;;;7.50;99.90;;;;;;4940622;29;20017;-73
2021/01/30 09:23:45;;;;;;;;;;;7.50;99.90;;;;;;4958672;29;20361;-75
2021/01/30 09:26:17;;;;;;;;;;;7.40;99.90;;;;;;4957259;29;19945;-72
2021/01/30 09:28:45;;;;;;;;;;;7.30;99.90;;;;;;4958129;29;19922;-75
2021/01/30 09:31:15;;;;;;;;;;;7.30;99.90;;;;;;4939122;29;19985;-74
2021/01/30 09:33:47;;;;;;;;;;;7.30;99.90;;;;;;4959876;29;19922;-75
2021/01/30 09:36:22;;;;;;;;;;;7.20;99.90;;;;;;4942373;29;19922;-74
2021/01/30 09:38:51;;;;;;;;;;;7.20;99.90;;;;;;4945076;29;20301;-73
2021/01/30 09:41:23;;;;;;;;;;;7.20;99.90;;;;;;4962035;29;19922;-73
2021/01/30 09:44:02;;;;;;;;;;;7.10;99.90;;;;;;4946848;28;19934;-73
2021/01/30 09:46:32;;;;;;;;;;;7.10;99.90;;;;;;4964006;28;20383;-74
2021/01/30 09:49:02;;;;;;;;;;;7.00;99.90;;;;;;4977854;29;19931;-72
2021/01/30 09:51:29;;;;;;;;;;;7.00;99.90;;;;;;4951186;29;19922;-73
2021/01/30 09:53:59;;;;;;;;;;;6.70;99.90;;;;;;4944402;29;19923;-73
2021/01/30 09:56:33;;;;;;;;;;;6.30;99.90;;;;;;4960958;29;19922;-74
2021/01/30 09:59:01;;;;;;;;;;;6.00;99.90;;;;;;4943699;29;19946;-74
2021/01/30 10:01:30;;;;;;;;;;;5.80;99.90;;;;;;4960118;28;20362;-76
2021/01/30 10:04:00;;;;;;;;;;;5.60;99.90;;;;;;4943219;29;20338;-73
2021/01/30 10:06:29;;;;;;;;;;;5.40;99.90;;;;;;4960577;29;19989;-73
2021/01/30 10:09:07;;;;;;;;;;;5.20;99.90;;;;;;4960923;29;20045;-73
2021/01/30 10:11:35;;;;;;;;;;;5.10;99.90;;;;;;4925956;29;19930;-74
2021/01/30 10:14:03;;;;;;;;;;;5.10;99.90;;;;;;4922564;29;19923;-74
2021/01/30 10:16:30;;;;;;;;;;;5.00;99.90;;;;;;4921092;29;19990;-73
2021/01/30 10:18:59;;;;;;;;;;;5.00;99.90;;;;;;4921986;29;19987;-74
2021/01/30 10:21:34;;;;;;;;;;;5.00;99.90;;;;;;4938548;29;19927;-76
2021/01/30 10:24:10;;;;;;;;;;;5.10;99.90;;;;;;4921421;29;19931;-74
2021/01/30 10:26:38;;;;;;;;;;;5.10;99.90;;;;;;4922146;29;19931;-73
2021/01/30 10:29:11;;;;;;;;;;;5.00;99.90;;;;;;4921983;29;20405;-74
2021/01/30 10:31:53;;;;;;;;;;;4.90;99.90;;;;;;4919868;29;19933;-74
2021/01/30 10:34:23;;;;;;;;;;;4.70;99.90;;;;;;4921294;29;20300;-74
2021/01/30 10:36:56;;;;;;;;;;;4.80;99.90;;;;;;4937108;29;19930;-77
2021/01/30 10:39:24;;;;;;;;;;;4.90;99.90;;;;;;4905450;29;20031;-74
2021/01/30 10:41:53;;;;;;;;;;;5.00;99.90;;;;;;4921859;29;20407;-73
2021/01/30 10:44:26;;;;;;;;;;;4.90;99.90;;;;;;4921307;29;19923;-74
2021/01/30 10:46:58;;;;;;;;;;;4.80;99.90;;;;;;4921691;29;19954;-73
2021/01/30 10:49:27;;;;;;;;;;;4.70;99.90;;;;;;4921721;29;19923;-74
2021/01/30 10:52:06;;;;;;;;;;;4.70;99.90;;;;;;4904972;29;19978;-73
2021/01/30 10:54:34;;;;;;;;;;;4.80;99.90;;;;;;4920327;29;19923;-73
2021/01/30 10:57:10;;;;;;;;;;;4.70;99.90;;;;;;4905148;29;19927;-74
2021/01/30 10:59:44;;;;;;;;;;;4.70;99.90;;;;;;4922515;29;20356;-72
2021/01/30 11:02:25;;;;;;;;;;;4.70;99.90;;;;;;4919710;29;19923;-72
2021/01/30 11:05:04;;;;;;;;;;;4.50;99.90;;;;;;4922187;29;19929;-73
2021/01/30 11:07:43;;;;;;;;;;;4.20;99.90;;;;;;4919961;29;20000;-73
2021/01/30 11:10:27;;;;;;;;;;;4.00;99.90;;;;;;4926555;29;19923;-78
2021/01/30 11:13:06;;;;;;;;;;;4.00;99.90;;;;;;4921330;29;19975;-75
2021/01/30 11:18:34;;;;;;;;;;;3.70;99.90;;;;;;4922137;29;19923;-74
2021/01/30 11:21:02;;;;;;;;;;;3.70;99.90;;;;;;4923335;29;19930;-74
2021/01/30 11:23:34;;;;;;;;;;;3.90;99.90;;;;;;4924826;29;19974;-73
2021/01/30 11:26:11;;;;;;;;;;;3.90;99.90;;;;;;4929809;29;19927;-76
2021/01/30 11:28:38;;;;;;;;;;;4.20;99.90;;;;;;4922405;29;19949;-73
2021/01/30 11:31:06;;;;;;;;;;;4.40;99.90;;;;;;4920859;29;19967;-74
2021/01/30 11:33:33;;;;;;;;;;;4.50;99.90;;;;;;4922424;29;19923;-74
2021/01/30 11:36:01;;;;;;;;;;;4.60;99.90;;;;;;4921070;29;19926;-74
2021/01/30 11:38:28;;;;;;;;;;;4.70;99.90;;;;;;4921653;29;19948;-76
2021/01/30 11:40:58;;;;;;;;;;;4.60;99.90;;;;;;4922296;29;19965;-73
2021/01/30 11:43:25;;;;;;;;;;;4.40;99.90;;;;;;4921004;29;19971;-75
2021/01/30 11:45:53;;;;;;;;;;;4.40;99.90;;;;;;4921054;29;19927;-75
2021/01/30 11:48:22;;;;;;;;;;;4.50;99.90;;;;;;4923575;29;19929;-76
2021/01/30 11:50:51;;;;;;;;;;;4.60;99.90;;;;;;4905542;29;19930;-76
2021/01/30 11:53:22;;;;;;;;;;;4.50;99.90;;;;;;4921706;29;19971;-74
2021/01/30 11:55:50;;;;;;;;;;;4.40;99.90;;;;;;4919361;29;19930;-75
2021/01/30 11:58:19;;;;;;;;;;;4.30;99.90;;;;;;4921313;29;20383;-74
2021/01/30 12:00:46;;;;;;;;;;;4.30;99.90;;;;;;4898727;29;20021;-73
2021/01/30 12:03:20;;;;;;;;;;;4.40;99.90;;;;;;4923703;29;19923;-73
2021/01/30 12:05:54;;;;;;;;;;;4.30;99.90;;;;;;4923685;29;19923;-73
2021/01/30 12:08:22;;;;;;;;;;;4.00;99.90;;;;;;4921552;29;20387;-74
2021/01/30 12:10:50;;;;;;;;;;;3.90;99.90;;;;;;4922886;29;20026;-75
2021/01/30 12:13:19;;;;;;;;;;;3.90;99.90;;;;;;4926414;29;19923;-74
2021/01/30 12:15:46;;;;;;;;;;;3.80;99.90;;;;;;4926136;29;19923;-74
2021/01/30 12:18:15;;;;;;;;;;;3.80;99.90;;;;;;4924915;29;19927;-74
2021/01/30 12:20:42;;;;;;;;;;;3.60;99.90;;;;;;4921047;29;19969;-73
2021/01/30 12:23:10;;;;;;;;;;;3.30;99.90;;;;;;4919473;29;20402;-74
2021/01/30 12:25:38;;;;;;;;;;;3.10;99.90;;;;;;4922698;29;19930;-74
2021/01/30 12:28:06;;;;;;;;;;;3.20;99.90;;;;;;4921649;29;19954;-74
2021/01/30 12:30:35;;;;;;;;;;;3.10;99.90;;;;;;4919662;29;19965;-73
2021/01/30 12:33:29;;;;;;;;;;;3.20;99.90;;;;;;4919841;29;19923;-76
2021/01/30 12:35:57;;;;;;;;;;;3.20;99.90;;;;;;4906730;29;19927;-74
2021/01/30 12:38:27;;;;;;;;;;;3.00;99.90;;;;;;4924004;29;19929;-73
2021/01/30 12:40:55;;;;;;;;;;;2.90;99.90;;;;;;4922186;29;19923;-75
2021/01/30 12:43:22;;;;;;;;;;;3.00;99.90;;;;;;4921549;29;19934;-75
2021/01/30 12:45:50;;;;;;;;;;;3.10;99.90;;;;;;4918880;29;19923;-75
2021/01/30 12:48:18;;;;;;;;;;;3.10;99.90;;;;;;4920502;29;19983;-73
2021/01/30 12:50:46;;;;;;;;;;;3.10;99.90;;;;;;4919088;29;19929;-73
2021/01/30 12:53:13;;;;;;;;;;;3.30;99.90;;;;;;4919276;29;20378;-75
2021/01/30 12:56:05;;;;;;;;;;;3.30;99.90;;;;;;4902956;29;20379;-76
2021/01/30 12:58:34;;;;;;;;;;;3.30;99.90;;;;;;4920349;29;19930;-75
2021/01/30 13:01:02;;;;;;;;;;;3.40;99.90;;;;;;4917006;29;19923;-72
2021/01/30 13:03:30;;;;;;;;;;;3.60;99.90;;;;;;4902943;29;19923;-72
2021/01/30 13:05:59;;;;;;;;;;;3.50;99.90;;;;;;4917642;29;20017;-71
2021/01/30 13:08:26;;;;;;;;;;;3.40;99.90;;;;;;4918020;29;19969;-74
2021/01/30 13:10:54;;;;;;;;;;;3.50;99.90;;;;;;4936928;28;20033;-71
2021/01/30 13:13:21;;;;;;;;;;;3.40;99.90;;;;;;4939888;29;20398;-73
2021/01/30 13:15:50;;;;;;;;;;;3.20;99.90;;;;;;4940524;29;20015;-71
2021/01/30 13:18:19;;;;;;;;;;;3.00;99.90;;;;;;4940924;29;19922;-75
2021/01/30 13:20:46;;;;;;;;;;;3.10;99.90;;;;;;4957545;29;19930;-74
2021/01/30 13:23:14;;;;;;;;;;;3.00;99.90;;;;;;4940093;29;19973;-74
2021/01/30 13:25:42;;;;;;;;;;;2.80;99.90;;;;;;4956887;29;19957;-72
2021/01/30 13:28:10;;;;;;;;;;;2.80;99.90;;;;;;4939984;29;19923;-72
2021/01/30 13:30:37;;;;;;;;;;;2.80;99.90;;;;;;4939593;29;19954;-72
2021/01/30 13:33:06;;;;;;;;;;;2.70;99.90;;;;;;4939030;29;19954;-73
2021/01/30 13:35:33;;;;;;;;;;;2.70;99.90;;;;;;4957443;29;19926;-71
2021/01/30 13:38:01;;;;;;;;;;;2.60;99.90;;;;;;4956817;29;19929;-72
2021/01/30 13:40:29;;;;;;;;;;;2.70;99.90;;;;;;4957172;29;20030;-71
2021/01/30 13:42:58;;;;;;;;;;;2.70;99.90;;;;;;4957100;29;19981;-71
2021/01/30 13:45:25;;;;;;;;;;;2.70;99.90;;;;;;4957623;28;19978;-71
2021/01/30 13:47:54;;;;;;;;;;;2.60;99.90;;;;;;4956718;28;19922;-72
2021/01/30 13:50:22;;;;;;;;;;;2.70;99.90;;;;;;4958118;29;19929;-72
2021/01/30 13:52:50;;;;;;;;;;;2.70;99.90;;;;;;4941331;29;19929;-72
2021/01/30 13:55:18;;;;;;;;;;;2.60;99.90;;;;;;4958811;29;19937;-73
2021/01/30 13:57:46;;;;;;;;;;;2.60;99.90;;;;;;4941107;29;20289;-72
2021/01/30 14:00:16;;;;;;;;;;;2.50;99.90;;;;;;4957720;28;19985;-72
2021/01/30 14:02:43;;;;;;;;;;;2.60;99.90;;;;;;4958816;28;19930;-71
2021/01/30 14:05:12;;;;;;;;;;;2.60;99.90;;;;;;4948793;29;20418;-72
2021/01/30 14:07:39;;;;;;;;;;;2.60;99.90;;;;;;4961580;29;19988;-72
2021/01/30 14:10:09;;;;;;;;;;;2.70;99.90;;;;;;4963115;29;20413;-72
2021/01/30 14:12:37;;;;;;;;;;;2.60;99.90;;;;;;4945511;29;19923;-73
2021/01/30 14:15:05;;;;;;;;;;;2.70;99.90;;;;;;4936705;29;19993;-73
2021/01/30 14:17:32;;;;;;;;;;;2.60;99.90;;;;;;4952115;29;19933;-72
2021/01/30 14:20:00;;;;;;;;;;;2.60;99.90;;;;;;4944424;29;19922;-71
2021/01/30 14:22:27;;;;;;;;;;;2.60;99.90;;;;;;4939765;29;19922;-71
2021/01/30 14:24:55;;;;;;;;;;;2.60;99.90;;;;;;4960430;29;19922;-72
2021/01/30 14:27:23;;;;;;;;;;;2.70;99.90;;;;;;4961672;29;19938;-72
2021/01/30 14:29:51;;;;;;;;;;;2.60;99.90;;;;;;4943875;29;19922;-71
2021/01/30 14:32:18;;;;;;;;;;;2.50;99.90;;;;;;4942474;29;19926;-74
2021/01/30 14:34:46;;;;;;;;;;;2.50;99.90;;;;;;4943577;29;19922;-73
2021/01/30 14:37:13;;;;;;;;;;;2.40;99.90;;;;;;4959914;29;19981;-71
2021/01/30 14:39:40;;;;;;;;;;;2.30;99.90;;;;;;4959836;29;20381;-72
2021/01/30 14:42:08;;;;;;;;;;;2.20;99.90;;;;;;4927158;29;20290;-71
2021/01/30 14:44:35;;;;;;;;;;;2.10;99.90;;;;;;4959995;29;20395;-72
2021/01/30 14:47:03;;;;;;;;;;;2.00;99.90;;;;;;4958784;28;19930;-73
2021/01/30 14:49:31;;;;;;;;;;;2.00;99.90;;;;;;4959375;29;19930;-72
2021/01/30 14:51:58;;;;;;;;;;;1.90;99.90;;;;;;4958982;29;19922;-71
2021/01/30 14:54:25;;;;;;;;;;;2.00;99.90;;;;;;4942142;29;20038;-72
2021/01/30 14:56:54;;;;;;;;;;;1.90;99.90;;;;;;4959352;29;19923;-72
2021/01/30 14:59:22;;;;;;;;;;;1.80;99.90;;;;;;4959783;29;20006;-73